METAR ET TAF INFORMATION
METAR FOR ENSO
ADDS - METARS form results

(0340 UTC 25 May 2019)
Data provider http://aviationweather.gov/metar/data/
 
Forecast for: AMD
Text: TAF AMD ENSO 241542Z 2415/2419 32015KT 8000 SCT006 BKN012
Forecast period: 1500 to 1900 UTC 24 May 2019
Forecast type: FROM: standard forecast or significant change
Winds: from the NW (320 degrees) at 17 MPH (15 knots; 7.7 m/s)
Visibility: 5 miles (8 km)
Ceiling: 1200 feet AGL
Clouds: scattered clouds at 600 feet AGL
broken clouds at 1200 feet AGL
Weather: no significant weather forecast for this period
Text: TEMPO 2415/2419 4000 BR BKN005
Forecast period: 1500 to 1900 UTC 24 May 2019
Forecast type: TEMPORARY: The following changes expected for less than half the time period
Visibility: 2.49 miles (4.01 km)
Ceiling: 500 feet AGL
Clouds: broken clouds at 500 feet AGL
Weather: BR  (mist)

 AÉROPORT DE AÉROPORT

 INFORMATIONS DE PISTE
Piste 14 Longueur de la piste 3937 ft Largeur de la piste 98 ft
Élévation de la piste 153 ft Seuil de la piste déplacés 0 ft Runway heading 145
Piste 32 Longueur de la piste 3937 ft Largeur de la piste 98 ft
Élévation de la piste 152 ft Seuil de la piste déplacés 0 ft Runway heading 325

 AÉROPORT FRÉQUENCES
Type AFIS Nom INFO Féquence 120.2 MHZ

 SIDA DE NAVIGATION
Type VOR-DME Nom Stord Féquence 113400 KHZ



Powered by Virtual Airlines Manager [v2.6.2]